createdAt,value
2022-09-21T00:01:09.598Z,5.38
2022-09-21T00:03:37.359Z,5.07
2022-09-21T00:06:11.857Z,5.68
2022-09-21T00:08:38.837Z,5.18
2022-09-21T00:11:06.428Z,6.00
2022-09-21T00:13:34.760Z,4.68
2022-09-21T00:16:01.677Z,5.25
2022-09-21T00:18:28.386Z,5.43
2022-09-21T00:20:55.158Z,5.32
2022-09-21T00:23:21.769Z,5.22
2022-09-21T00:25:48.458Z,4.95
2022-09-21T00:28:15.337Z,5.43
2022-09-21T00:30:41.989Z,5.40
2022-09-21T00:33:08.648Z,4.68
2022-09-21T00:35:35.292Z,5.50
2022-09-21T00:38:03.461Z,5.35
2022-09-21T00:40:30.987Z,4.80
2022-09-21T00:43:15.254Z,5.03
2022-09-21T00:45:43.576Z,5.53
2022-09-21T00:48:10.718Z,5.25
2022-09-21T00:50:40.283Z,5.40
2022-09-21T00:53:06.920Z,5.53
2022-09-21T00:55:56.007Z,5.53
2022-09-21T00:58:30.464Z,5.68
2022-09-21T01:00:59.092Z,5.50
2022-09-21T01:03:25.830Z,4.80
2022-09-21T01:05:52.433Z,5.75
2022-09-21T01:08:20.679Z,6.05
2022-09-21T01:10:47.247Z,5.25
2022-09-21T01:13:26.083Z,5.40
2022-09-21T01:16:15.730Z,5.78
2022-09-21T01:18:48.237Z,5.25
2022-09-21T01:21:30.617Z,5.20
2022-09-21T01:24:23.375Z,6.00
2022-09-21T01:26:59.009Z,5.70
2022-09-21T01:29:32.669Z,5.38
2022-09-21T01:32:06.474Z,5.78
2022-09-21T01:34:39.731Z,6.07
2022-09-21T01:37:11.163Z,6.07
2022-09-21T01:39:39.251Z,6.53
2022-09-21T01:42:07.338Z,7.38
2022-09-21T01:44:36.108Z,4.35
2022-09-21T01:47:04.097Z,5.78
2022-09-21T01:49:35.146Z,6.90
2022-09-21T01:52:12.412Z,6.03
2022-09-21T01:54:44.137Z,5.38
2022-09-21T01:57:26.649Z,6.35
2022-09-21T01:59:55.268Z,5.72
2022-09-21T02:02:40.414Z,5.72
2022-09-21T02:05:07.640Z,5.68
2022-09-21T02:07:35.070Z,5.20
2022-09-21T02:10:03.138Z,6.72
2022-09-21T02:12:33.116Z,6.38
2022-09-21T02:15:01.089Z,7.15
2022-09-21T02:17:31.354Z,6.03
2022-09-21T02:20:19.880Z,6.93
2022-09-21T02:23:17.750Z,6.22
2022-09-21T02:26:06.794Z,6.13
2022-09-21T02:28:44.279Z,6.60
2022-09-21T02:31:32.927Z,6.93
2022-09-21T02:34:05.123Z,5.28
2022-09-21T02:36:43.522Z,6.50
2022-09-21T02:39:15.938Z,6.38
2022-09-21T02:42:03.763Z,5.75
2022-09-21T02:44:34.425Z,6.93
2022-09-21T02:47:15.030Z,6.20
2022-09-21T02:49:46.039Z,5.00
2022-09-21T02:52:16.202Z,6.03
2022-09-21T02:54:45.364Z,6.05
2022-09-21T02:57:13.054Z,5.90
2022-09-21T02:59:40.342Z,5.82
2022-09-21T03:02:07.214Z,6.40
2022-09-21T03:04:34.196Z,4.75
2022-09-21T03:07:00.907Z,4.82
2022-09-21T03:09:27.652Z,5.50
2022-09-21T03:11:54.864Z,5.25
2022-09-21T03:14:23.018Z,5.45
2022-09-21T03:16:49.834Z,5.38
2022-09-21T03:19:16.881Z,5.40
2022-09-21T03:21:44.762Z,5.57
2022-09-21T03:24:11.993Z,5.47
2022-09-21T03:26:39.157Z,6.80
2022-09-21T03:29:05.883Z,6.40
2022-09-21T03:31:32.655Z,5.68
2022-09-21T03:33:59.501Z,5.03
2022-09-21T03:36:26.110Z,4.90
2022-09-21T03:38:52.770Z,5.70
2022-09-21T03:41:19.529Z,4.85
2022-09-21T03:43:46.134Z,6.22
2022-09-21T03:46:12.814Z,6.32
2022-09-21T03:48:42.494Z,6.35
2022-09-21T03:51:09.276Z,5.82
2022-09-21T03:53:35.945Z,6.18
2022-09-21T03:56:02.692Z,5.78
2022-09-21T03:58:29.286Z,6.40
2022-09-21T04:01:01.442Z,5.32
2022-09-21T04:03:28.061Z,5.50
2022-09-21T04:05:54.677Z,7.00
2022-09-21T04:08:21.603Z,6.20
2022-09-21T04:10:48.206Z,6.47
2022-09-21T04:13:14.796Z,7.57
2022-09-21T04:15:41.525Z,7.90
2022-09-21T04:18:08.535Z,6.90
2022-09-21T04:20:35.230Z,8.35
2022-09-21T04:23:01.926Z,10.20
2022-09-21T04:25:28.858Z,7.82
2022-09-21T04:27:55.774Z,7.10
2022-09-21T04:30:22.412Z,6.00
2022-09-21T04:32:49.121Z,6.93
2022-09-21T04:35:15.953Z,6.85
2022-09-21T04:37:42.801Z,5.97
2022-09-21T04:40:09.858Z,6.20
2022-09-21T04:42:36.547Z,6.72
2022-09-21T04:45:03.773Z,6.05
2022-09-21T04:47:31.159Z,6.45
2022-09-21T04:49:57.884Z,6.00
2022-09-21T04:52:24.614Z,5.88
2022-09-21T04:54:51.256Z,5.80
2022-09-21T04:57:17.872Z,5.47
2022-09-21T04:59:44.536Z,6.28
2022-09-21T05:02:11.490Z,4.85
2022-09-21T05:04:38.168Z,5.32
2022-09-21T05:07:04.864Z,6.07
2022-09-21T05:09:50.056Z,5.50
2022-09-21T05:12:16.722Z,5.38
2022-09-21T05:14:45.051Z,5.43
2022-09-21T05:17:12.556Z,5.80
2022-09-21T05:19:40.137Z,6.20
2022-09-21T05:22:06.844Z,6.43
2022-09-21T05:24:33.532Z,5.47
2022-09-21T05:27:00.398Z,5.95
2022-09-21T05:29:27.453Z,5.32
2022-09-21T05:32:19.104Z,5.82
2022-09-21T05:35:03.807Z,5.68
2022-09-21T05:37:39.626Z,4.60
2022-09-21T05:40:07.814Z,5.90
2022-09-21T05:42:34.809Z,6.93
2022-09-21T05:45:01.768Z,5.78
2022-09-21T05:47:39.190Z,6.30
2022-09-21T05:50:06.053Z,6.68
2022-09-21T05:52:48.201Z,6.30
2022-09-21T05:55:33.141Z,5.90
2022-09-21T05:58:02.160Z,6.80
2022-09-21T06:00:38.505Z,6.18
2022-09-21T06:03:29.432Z,5.10
2022-09-21T06:05:59.537Z,6.57
2022-09-21T06:08:26.942Z,5.68
2022-09-21T06:10:56.257Z,5.57
2022-09-21T06:13:22.869Z,5.10
2022-09-21T06:15:49.574Z,5.00
2022-09-21T06:18:18.159Z,4.50
2022-09-21T06:20:45.477Z,4.88
2022-09-21T06:23:13.549Z,5.18
2022-09-21T06:25:40.298Z,4.68
2022-09-21T06:28:09.902Z,5.55
2022-09-21T06:30:37.100Z,4.25
2022-09-21T06:33:05.394Z,4.68
2022-09-21T06:35:33.475Z,4.60
2022-09-21T06:38:01.449Z,4.10
2022-09-21T06:40:29.394Z,4.63
2022-09-21T06:42:58.123Z,4.85
2022-09-21T06:45:25.798Z,4.28
2022-09-21T06:47:52.519Z,4.43
2022-09-21T06:50:19.884Z,3.90
2022-09-21T06:52:47.074Z,4.20
2022-09-21T06:55:14.919Z,4.35
2022-09-21T06:57:41.783Z,3.80
2022-09-21T07:00:13.487Z,4.22
2022-09-21T07:02:46.531Z,4.82
2022-09-21T07:05:13.803Z,4.75
2022-09-21T07:07:40.595Z,4.88
2022-09-21T07:10:13.120Z,4.78
2022-09-21T07:12:43.294Z,4.28
2022-09-21T07:15:10.662Z,4.60
2022-09-21T07:17:39.114Z,4.95
2022-09-21T07:20:08.036Z,5.22
2022-09-21T07:22:35.708Z,5.28
2022-09-21T07:25:03.465Z,3.88
2022-09-21T07:27:31.168Z,5.10
2022-09-21T07:29:57.839Z,5.10
2022-09-21T07:32:26.062Z,5.13
2022-09-21T07:34:56.522Z,5.05
2022-09-21T07:37:24.768Z,4.57
2022-09-21T07:39:53.061Z,4.38
2022-09-21T07:42:22.764Z,5.43
2022-09-21T07:44:50.279Z,5.13
2022-09-21T07:47:18.028Z,5.20
2022-09-21T07:49:46.768Z,5.45
2022-09-21T07:52:13.874Z,5.20
2022-09-21T07:54:54.596Z,5.05
2022-09-21T07:57:39.845Z,6.10
2022-09-21T08:00:07.036Z,6.30
2022-09-21T08:02:33.747Z,5.93
2022-09-21T08:05:00.632Z,5.75
2022-09-21T08:07:28.471Z,6.43
2022-09-21T08:09:55.144Z,5.38
2022-09-21T08:12:21.889Z,5.78
2022-09-21T08:14:48.593Z,5.53
2022-09-21T08:17:15.364Z,5.78
2022-09-21T08:19:42.017Z,7.45
2022-09-21T08:22:11.736Z,6.40
2022-09-21T08:24:39.018Z,6.63
2022-09-21T08:27:05.846Z,6.13
2022-09-21T08:29:32.639Z,5.88
2022-09-21T08:31:59.342Z,5.72
2022-09-21T08:34:26.511Z,5.78
2022-09-21T08:36:55.683Z,5.97
2022-09-21T08:39:23.686Z,6.20
2022-09-21T08:42:11.009Z,7.25
2022-09-21T08:44:40.428Z,5.95
2022-09-21T08:47:12.810Z,6.15
2022-09-21T08:49:41.558Z,6.75
2022-09-21T08:52:15.997Z,4.85
2022-09-21T08:54:55.864Z,4.93
2022-09-21T08:57:25.719Z,4.90
2022-09-21T08:59:55.026Z,5.18
2022-09-21T09:02:39.038Z,4.78
2022-09-21T09:05:08.779Z,6.45
2022-09-21T09:07:47.751Z,7.05
2022-09-21T09:10:20.453Z,14.20
2022-09-21T09:13:31.914Z,8.88
2022-09-21T09:16:19.500Z,7.38
2022-09-21T09:18:49.290Z,7.00
2022-09-21T09:21:29.108Z,6.22
2022-09-21T09:24:33.750Z,6.18
2022-09-21T09:27:07.628Z,6.60
2022-09-21T09:30:03.472Z,6.43
2022-09-21T09:32:52.667Z,6.72
2022-09-21T09:35:29.643Z,7.47
2022-09-21T09:38:27.941Z,6.75
2022-09-21T09:41:05.767Z,6.18
2022-09-21T09:43:41.515Z,6.47
2022-09-21T09:46:16.528Z,8.65
2022-09-21T09:49:09.594Z,6.47
2022-09-21T09:51:37.738Z,6.40
2022-09-21T09:54:09.517Z,4.85
2022-09-21T09:56:36.915Z,5.55
2022-09-21T09:59:08.339Z,5.43
2022-09-21T10:01:44.205Z,5.00
2022-09-21T10:04:13.401Z,5.32
2022-09-21T10:06:45.837Z,4.43
2022-09-21T10:09:33.272Z,4.10
2022-09-21T10:12:17.327Z,3.55
2022-09-21T10:14:49.907Z,3.53
2022-09-21T10:17:17.517Z,2.75
2022-09-21T10:19:44.345Z,3.28
2022-09-21T10:22:17.586Z,3.47
2022-09-21T10:24:50.445Z,2.72
2022-09-21T10:27:22.679Z,3.03
2022-09-21T10:29:52.623Z,3.58
2022-09-21T10:32:31.058Z,4.00
2022-09-21T10:35:10.565Z,3.80
2022-09-21T10:37:41.166Z,3.35
2022-09-21T10:40:20.094Z,2.60
2022-09-21T10:42:51.130Z,3.30
2022-09-21T10:45:19.075Z,3.80
2022-09-21T10:47:48.929Z,4.18
2022-09-21T10:50:30.128Z,3.58
2022-09-21T10:53:32.392Z,3.92
2022-09-21T10:56:17.197Z,3.47
2022-09-21T10:59:13.829Z,3.95
2022-09-21T11:01:45.956Z,4.47
2022-09-21T11:04:39.966Z,4.45
2022-09-21T11:07:20.163Z,5.10
2022-09-21T11:10:04.206Z,5.78
2022-09-21T11:12:49.331Z,5.32
2022-09-21T11:15:41.380Z,5.57
2022-09-21T11:18:53.341Z,5.57
2022-09-21T11:21:41.989Z,4.65
2022-09-21T11:24:29.894Z,4.35
2022-09-21T11:27:04.277Z,4.18
2022-09-21T11:30:12.378Z,4.18
2022-09-21T11:32:59.306Z,3.38
2022-09-21T11:36:00.136Z,3.50
2022-09-21T11:38:57.262Z,4.32
2022-09-21T11:41:44.313Z,4.32
2022-09-21T11:44:32.354Z,4.15
2022-09-21T11:47:26.535Z,4.95
2022-09-21T11:50:28.816Z,4.43
2022-09-21T11:53:17.477Z,4.30
2022-09-21T11:55:48.463Z,4.07
2022-09-21T11:58:29.719Z,3.45
2022-09-21T12:01:12.379Z,3.80
2022-09-21T12:03:56.057Z,3.22
2022-09-21T12:06:43.302Z,3.25
2022-09-21T12:09:28.692Z,3.05
2022-09-21T12:12:11.471Z,2.20
2022-09-21T12:15:03.860Z,2.20
2022-09-21T12:17:38.840Z,2.08
2022-09-21T12:20:29.678Z,2.83
2022-09-21T12:23:27.544Z,2.60
2022-09-21T12:25:57.418Z,2.92
2022-09-21T12:29:16.477Z,3.15
2022-09-21T12:31:49.927Z,2.85
2022-09-21T12:34:22.794Z,2.30
2022-09-21T12:37:05.300Z,2.38
2022-09-21T12:39:43.425Z,2.25
2022-09-21T12:42:13.550Z,1.42
2022-09-21T12:44:53.981Z,1.83
2022-09-21T12:47:32.864Z,1.45
2022-09-21T12:50:04.138Z,2.10
2022-09-21T12:52:33.181Z,4.35
2022-09-21T12:55:05.799Z,2.88
2022-09-21T13:01:14.644Z,3.55
2022-09-21T13:03:55.315Z,3.33
2022-09-21T13:06:43.778Z,3.75
2022-09-21T13:09:13.596Z,3.95
2022-09-21T13:12:26.243Z,4.03
2022-09-21T13:14:59.619Z,3.67
2022-09-21T13:17:31.165Z,4.38
2022-09-21T13:20:17.269Z,3.83
2022-09-21T13:22:44.497Z,4.15
2022-09-21T13:25:23.949Z,4.30
2022-09-21T13:28:10.024Z,4.70
2022-09-21T13:30:40.681Z,4.75
2022-09-21T13:33:23.881Z,4.55
2022-09-21T13:36:02.626Z,3.42
2022-09-21T13:38:37.518Z,4.05
2022-09-21T13:41:19.402Z,4.07
2022-09-21T13:44:01.099Z,4.35
2022-09-21T13:46:37.110Z,4.38
2022-09-21T13:49:17.101Z,3.60
2022-09-21T13:52:08.709Z,4.57
2022-09-21T13:54:49.030Z,3.83
2022-09-21T13:57:19.144Z,3.60
2022-09-21T13:59:49.665Z,3.47
2022-09-21T14:02:37.326Z,3.88
2022-09-21T14:05:10.628Z,3.72
2022-09-21T14:10:18.681Z,2.93
2022-09-21T14:12:45.839Z,3.92
2022-09-21T14:15:19.613Z,2.50
2022-09-21T14:18:12.288Z,3.20
2022-09-21T14:20:39.794Z,3.05
2022-09-21T14:23:16.453Z,2.78
2022-09-21T14:25:49.286Z,3.15
2022-09-21T14:28:17.781Z,2.65
2022-09-21T14:30:50.624Z,2.80
2022-09-21T14:33:28.086Z,3.38
2022-09-21T14:35:55.285Z,2.45
2022-09-21T14:38:28.611Z,2.92
2022-09-21T14:41:00.716Z,3.13
2022-09-21T14:43:33.962Z,3.17
2022-09-21T14:46:03.502Z,2.65
2022-09-21T14:48:43.437Z,3.42
2022-09-21T14:51:55.803Z,3.20
2022-09-21T14:54:53.116Z,2.67
2022-09-21T14:57:35.403Z,2.85
2022-09-21T15:00:26.492Z,3.00
2022-09-21T15:03:39.259Z,3.30
2022-09-21T15:06:39.722Z,3.40
2022-09-21T15:09:48.766Z,3.33
2022-09-21T15:12:22.510Z,3.40
2022-09-21T15:14:57.376Z,3.13
2022-09-21T15:17:26.408Z,2.90
2022-09-21T15:19:58.497Z,3.22
2022-09-21T15:22:26.083Z,3.15
2022-09-21T15:24:54.966Z,3.60
2022-09-21T15:27:24.461Z,3.45
2022-09-21T15:29:53.826Z,4.13
2022-09-21T15:32:37.841Z,3.15
2022-09-21T15:35:18.623Z,4.70
2022-09-21T15:37:48.553Z,3.88
2022-09-21T15:40:18.871Z,3.88
2022-09-21T15:43:04.739Z,3.50
2022-09-21T15:46:10.084Z,3.63
2022-09-21T15:48:39.853Z,3.55
2022-09-21T15:51:31.000Z,3.35
2022-09-21T15:54:09.910Z,3.85
2022-09-21T15:56:41.332Z,3.92
2022-09-21T15:59:15.154Z,3.67
2022-09-21T16:01:48.094Z,3.95
2022-09-21T16:04:22.764Z,4.65
2022-09-21T16:07:04.251Z,4.80
2022-09-21T16:09:46.837Z,4.88
2022-09-21T16:12:25.761Z,5.53
2022-09-21T16:14:53.904Z,5.38
2022-09-21T16:17:22.335Z,5.00
2022-09-21T16:19:49.993Z,4.72
2022-09-21T16:22:28.115Z,4.80
2022-09-21T16:24:58.072Z,5.15
2022-09-21T16:27:27.717Z,5.05
2022-09-21T16:29:56.070Z,5.15
2022-09-21T16:32:29.387Z,5.57
2022-09-21T16:35:31.540Z,5.28
2022-09-21T16:37:58.837Z,5.20
2022-09-21T16:40:27.033Z,5.45
2022-09-21T16:42:54.295Z,6.75
2022-09-21T16:45:31.882Z,6.43
2022-09-21T16:47:59.596Z,6.07
2022-09-21T16:50:26.481Z,6.50
2022-09-21T16:52:53.184Z,5.68
2022-09-21T16:55:22.432Z,7.07
2022-09-21T16:57:51.209Z,7.50
2022-09-21T17:00:22.275Z,6.28
2022-09-21T17:02:49.573Z,7.68
2022-09-21T17:05:18.183Z,7.22
2022-09-21T17:07:58.703Z,7.47
2022-09-21T17:10:35.885Z,6.82
2022-09-21T17:13:05.851Z,7.63
2022-09-21T17:15:33.886Z,7.80
2022-09-21T17:18:00.509Z,8.07
2022-09-21T17:20:34.099Z,8.57
2022-09-21T17:23:04.300Z,7.28
2022-09-21T17:25:32.937Z,9.27
2022-09-21T17:28:00.566Z,7.90
2022-09-21T17:30:27.433Z,9.07
2022-09-21T17:32:54.887Z,7.38
2022-09-21T17:35:41.637Z,8.40
2022-09-21T17:38:13.895Z,8.32
2022-09-21T17:40:41.283Z,8.50
2022-09-21T17:43:14.089Z,8.30
2022-09-21T17:46:08.450Z,8.82
2022-09-21T17:48:40.717Z,7.55
2022-09-21T17:51:08.160Z,7.68
2022-09-21T17:53:37.073Z,8.18
2022-09-21T17:56:09.983Z,7.25
2022-09-21T17:58:48.807Z,7.63
2022-09-21T18:01:36.187Z,6.88
2022-09-21T18:04:04.090Z,7.47
2022-09-21T18:06:31.675Z,6.40
2022-09-21T18:08:58.736Z,6.70
2022-09-21T18:12:06.615Z,5.60
2022-09-21T18:15:08.775Z,6.97
2022-09-21T18:17:47.566Z,4.82
2022-09-21T18:20:23.333Z,5.30
2022-09-21T18:22:54.220Z,6.18
2022-09-21T18:25:33.852Z,6.28
2022-09-21T18:28:12.482Z,7.07
2022-09-21T18:30:43.431Z,6.70
2022-09-21T18:33:27.509Z,6.53
2022-09-21T18:36:22.346Z,6.20
2022-09-21T18:39:01.480Z,6.70
2022-09-21T18:41:48.398Z,8.80
2022-09-21T18:44:21.647Z,8.75
2022-09-21T18:46:57.695Z,8.18
2022-09-21T18:49:36.366Z,8.18
2022-09-21T18:52:07.498Z,9.50
2022-09-21T18:54:35.539Z,9.82
2022-09-21T18:57:05.932Z,8.65
2022-09-21T18:59:32.890Z,9.65
2022-09-21T19:02:53.514Z,9.13
2022-09-21T19:10:39.018Z,10.40
2022-09-21T19:13:36.322Z,9.93
2022-09-21T19:16:02.910Z,12.20
2022-09-21T19:18:52.373Z,10.93
2022-09-21T19:21:30.982Z,10.68
2022-09-21T19:24:35.788Z,10.93
2022-09-21T19:27:31.789Z,10.55
2022-09-21T19:30:08.972Z,10.23
2022-09-21T19:32:46.249Z,10.35
2022-09-21T19:35:28.089Z,9.18
2022-09-21T19:37:57.706Z,10.10
2022-09-21T19:40:45.149Z,8.15
2022-09-21T19:43:33.963Z,9.18
2022-09-21T19:46:12.472Z,7.97
2022-09-21T19:48:43.553Z,7.38
2022-09-21T19:51:18.900Z,8.25
2022-09-21T19:56:55.250Z,7.90
2022-09-21T19:59:41.214Z,7.50
2022-09-21T20:02:15.349Z,8.50
2022-09-21T20:05:06.674Z,8.50
2022-09-21T20:07:53.276Z,7.82
2022-09-21T20:10:23.015Z,8.10
2022-09-21T20:12:50.791Z,8.77
2022-09-21T20:15:20.697Z,8.52
2022-09-21T20:17:54.659Z,8.70
2022-09-21T20:20:26.577Z,9.65
2022-09-21T20:22:54.553Z,8.38
2022-09-21T20:25:57.265Z,8.45
2022-09-21T20:28:24.277Z,9.30
2022-09-21T20:30:51.562Z,10.40
2022-09-21T20:33:23.315Z,9.20
2022-09-21T20:35:53.006Z,9.93
2022-09-21T20:38:19.755Z,9.70
2022-09-21T20:40:46.582Z,11.10
2022-09-21T20:43:16.533Z,10.73
2022-09-21T20:45:47.844Z,11.15
2022-09-21T20:48:14.679Z,10.82
2022-09-21T20:50:48.844Z,11.98
2022-09-21T20:53:15.644Z,11.07
2022-09-21T20:55:43.889Z,10.93
2022-09-21T20:58:12.592Z,12.60
2022-09-21T21:00:39.550Z,11.63
2022-09-21T21:03:06.158Z,12.43
2022-09-21T21:05:32.858Z,12.13
2022-09-21T21:07:59.870Z,12.07
2022-09-21T21:10:26.528Z,11.55
2022-09-21T21:12:53.183Z,11.95
2022-09-21T21:15:20.049Z,13.52
2022-09-21T21:17:48.303Z,12.20
2022-09-21T21:20:16.808Z,13.10
2022-09-21T21:22:49.945Z,14.77
2022-09-21T21:25:16.943Z,11.43
2022-09-21T21:27:43.631Z,14.45
2022-09-21T21:30:11.983Z,13.05
2022-09-21T21:32:38.614Z,13.77
2022-09-21T21:35:05.827Z,13.30
2022-09-21T21:37:32.859Z,11.57
2022-09-21T21:39:59.503Z,11.75
2022-09-21T21:42:28.710Z,11.88
2022-09-21T21:44:56.015Z,11.30
2022-09-21T21:50:10.105Z,10.90
2022-09-21T21:52:37.540Z,10.68
2022-09-21T21:55:07.488Z,11.82
2022-09-21T21:57:34.101Z,11.52
2022-09-21T22:00:00.948Z,9.32
2022-09-21T22:02:29.486Z,10.13
2022-09-21T22:04:56.190Z,9.68
2022-09-21T22:07:22.909Z,10.68
2022-09-21T22:09:49.879Z,10.50
2022-09-21T22:12:16.800Z,10.10
2022-09-21T22:14:46.381Z,10.32
2022-09-21T22:17:13.163Z,10.73
2022-09-21T22:19:39.858Z,10.48
2022-09-21T22:22:06.587Z,8.93
2022-09-21T22:24:33.253Z,10.52
2022-09-21T22:27:00.006Z,10.23
2022-09-21T22:29:26.692Z,9.30
2022-09-21T22:31:55.328Z,8.50
2022-09-21T22:34:22.179Z,9.23
2022-09-21T22:36:48.891Z,10.27
2022-09-21T22:39:15.698Z,10.70
2022-09-21T22:41:43.042Z,9.82
2022-09-21T22:44:10.786Z,9.32
2022-09-21T22:46:38.219Z,9.13
2022-09-21T22:49:05.308Z,9.93
2022-09-21T22:51:32.212Z,9.20
2022-09-21T22:53:58.968Z,9.65
2022-09-21T22:56:27.941Z,10.10
2022-09-21T22:58:57.382Z,10.05
2022-09-21T23:01:26.996Z,10.70
2022-09-21T23:03:56.235Z,12.07
2022-09-21T23:06:26.165Z,13.07
2022-09-21T23:08:54.624Z,12.43
2022-09-21T23:11:22.559Z,13.45
2022-09-21T23:13:49.585Z,13.38
2022-09-21T23:16:17.208Z,12.38
2022-09-21T23:18:44.421Z,12.80
2022-09-21T23:21:14.372Z,12.20
2022-09-21T23:23:41.477Z,10.82
2022-09-21T23:26:14.208Z,11.48
2022-09-21T23:28:42.879Z,12.73
2022-09-21T23:31:11.452Z,11.95
2022-09-21T23:33:40.568Z,13.88
2022-09-21T23:36:08.859Z,11.73
2022-09-21T23:38:36.335Z,12.02
2022-09-21T23:41:07.185Z,13.57
2022-09-21T23:43:34.909Z,13.77
2022-09-21T23:46:02.042Z,12.38
2022-09-21T23:48:29.100Z,13.55
2022-09-21T23:50:56.667Z,13.88
2022-09-21T23:53:24.213Z,13.23
2022-09-21T23:55:53.400Z,12.70
2022-09-21T23:58:20.044Z,13.57
